createdAt,value
2022-08-09T00:00:54.216Z,99.90
2022-08-09T00:06:22.761Z,99.90
2022-08-09T00:11:58.483Z,99.90
2022-08-09T00:18:05.754Z,99.90
2022-08-09T00:23:55.685Z,99.90
2022-08-09T00:28:52.512Z,99.90
2022-08-09T00:34:15.472Z,99.90
2022-08-09T00:40:13.519Z,99.90
2022-08-09T00:45:23.978Z,99.90
2022-08-09T00:50:47.820Z,99.90
2022-08-09T00:56:15.835Z,99.90
2022-08-09T01:01:44.434Z,99.90
2022-08-09T01:07:13.964Z,99.90
2022-08-09T01:12:51.245Z,99.90
2022-08-09T01:18:29.606Z,99.90
2022-08-09T01:24:03.431Z,99.90
2022-08-09T01:29:48.495Z,99.90
2022-08-09T01:35:59.697Z,99.90
2022-08-09T01:41:25.866Z,99.90
2022-08-09T01:46:50.364Z,99.90
2022-08-09T01:52:18.681Z,99.90
2022-08-09T01:57:46.029Z,99.90
2022-08-09T02:03:15.337Z,99.90
2022-08-09T02:08:57.870Z,99.90
2022-08-09T02:14:26.172Z,99.90
2022-08-09T02:19:49.369Z,99.90
2022-08-09T02:25:18.670Z,99.90
2022-08-09T02:30:46.430Z,99.90
2022-08-09T02:36:16.911Z,99.90
2022-08-09T02:41:56.599Z,99.90
2022-08-09T02:47:22.460Z,99.90
2022-08-09T02:52:48.595Z,99.90
2022-08-09T02:58:35.845Z,99.90
2022-08-09T03:04:17.094Z,99.90
2022-08-09T03:09:56.248Z,99.90
2022-08-09T03:15:20.773Z,99.90
2022-08-09T03:20:45.917Z,99.90
2022-08-09T03:26:09.512Z,99.90
2022-08-09T03:31:32.333Z,99.90
2022-08-09T03:37:54.129Z,99.90
2022-08-09T03:42:47.140Z,99.90
2022-08-09T03:48:09.535Z,99.90
2022-08-09T03:53:37.098Z,99.90
2022-08-09T03:59:00.058Z,99.90
2022-08-09T04:04:24.673Z,99.90
2022-08-09T04:09:48.376Z,99.90
2022-08-09T04:15:29.547Z,99.90
2022-08-09T04:20:58.316Z,99.90
2022-08-09T04:26:20.442Z,99.90
2022-08-09T04:31:46.908Z,99.90
2022-08-09T04:37:09.659Z,99.90
2022-08-09T04:42:35.371Z,99.90
2022-08-09T04:48:02.066Z,99.90
2022-08-09T04:53:27.556Z,99.90
2022-08-09T04:58:53.951Z,99.90
2022-08-09T05:04:17.652Z,98.70
2022-08-09T05:09:42.213Z,96.20
2022-08-09T05:15:24.654Z,96.40
2022-08-09T05:20:53.313Z,97.60
2022-08-09T05:26:26.558Z,97.50
2022-08-09T05:32:00.284Z,99.90
2022-08-09T05:37:22.411Z,99.90
2022-08-09T05:42:44.525Z,99.90
2022-08-09T05:48:07.380Z,99.90
2022-08-09T05:53:31.802Z,99.90
2022-08-09T05:58:59.522Z,99.90
2022-08-09T06:04:23.466Z,99.90
2022-08-09T06:10:01.721Z,99.90
2022-08-09T06:15:24.708Z,99.90
2022-08-09T06:20:54.895Z,99.90
2022-08-09T06:26:22.448Z,99.90
2022-08-09T06:32:08.111Z,99.90
2022-08-09T06:37:29.036Z,99.90
2022-08-09T06:42:51.312Z,99.90
2022-08-09T06:48:16.637Z,99.90
2022-08-09T06:53:49.874Z,99.90
2022-08-09T07:00:56.138Z,99.90
2022-08-09T07:04:54.259Z,99.90
2022-08-09T07:10:24.611Z,99.90
2022-08-09T07:16:35.245Z,99.90
2022-08-09T07:21:36.908Z,99.90
2022-08-09T07:26:59.678Z,99.90
2022-08-09T07:32:22.979Z,99.90
2022-08-09T07:37:59.584Z,99.90
2022-08-09T07:43:21.849Z,99.90
2022-08-09T07:48:59.040Z,99.90
2022-08-09T07:54:28.275Z,99.90
2022-08-09T08:00:03.689Z,99.90
2022-08-09T08:05:53.545Z,99.90
2022-08-09T08:12:11.615Z,99.90
2022-08-09T08:17:00.576Z,98.20
2022-08-09T08:22:29.381Z,97.40
2022-08-09T08:27:51.985Z,97.80
2022-08-09T08:33:23.175Z,96.80
2022-08-09T08:38:46.540Z,95.00
2022-08-09T08:44:09.548Z,95.30
2022-08-09T08:49:47.347Z,93.60
2022-08-09T08:55:13.698Z,94.40
2022-08-09T09:00:38.006Z,93.60
2022-08-09T09:06:04.804Z,93.20
2022-08-09T09:11:29.773Z,92.40
2022-08-09T09:16:56.276Z,90.40
2022-08-09T09:22:26.863Z,89.10
2022-08-09T09:28:05.297Z,88.50
2022-08-09T09:33:44.525Z,86.40
2022-08-09T09:39:10.158Z,89.00
2022-08-09T09:44:34.398Z,87.10
2022-08-09T09:50:13.587Z,89.70
2022-08-09T09:56:05.170Z,89.60
2022-08-09T10:01:31.085Z,91.40
2022-08-09T10:07:03.574Z,90.30
2022-08-09T10:12:43.551Z,91.90
2022-08-09T10:18:12.532Z,92.20
2022-08-09T10:23:37.038Z,90.30
2022-08-09T10:29:38.038Z,88.20
2022-08-09T10:34:46.034Z,90.00
2022-08-09T10:40:11.914Z,91.10
2022-08-09T10:45:59.904Z,87.40
2022-08-09T10:51:53.029Z,85.50
2022-08-09T10:57:15.403Z,79.80
2022-08-09T11:03:27.952Z,79.90
2022-08-09T11:08:47.934Z,82.50
2022-08-09T11:14:35.262Z,80.10
2022-08-09T11:20:23.126Z,80.30
2022-08-09T11:25:48.520Z,78.70
2022-08-09T11:31:43.275Z,81.70
2022-08-09T11:37:24.485Z,80.10
2022-08-09T11:42:52.581Z,82.60
2022-08-09T11:48:25.097Z,79.40
2022-08-09T11:54:13.782Z,79.70
2022-08-09T11:59:37.984Z,79.40
2022-08-09T12:05:00.492Z,79.50
2022-08-09T12:10:38.776Z,83.70
2022-08-09T12:16:18.755Z,81.80
2022-08-09T12:21:59.194Z,79.10
2022-08-09T12:28:58.115Z,84.90
2022-08-09T12:33:04.441Z,82.90
2022-08-09T12:38:37.392Z,81.60
2022-08-09T12:44:06.490Z,82.20
2022-08-09T12:49:32.029Z,82.20
2022-08-09T12:56:12.893Z,81.40
2022-08-09T13:00:43.205Z,84.50
2022-08-09T13:06:15.855Z,86.30
2022-08-09T13:11:49.860Z,83.30
2022-08-09T13:17:33.638Z,86.70
2022-08-09T13:24:05.747Z,82.30
2022-08-09T13:29:01.399Z,85.20
2022-08-09T13:34:25.952Z,84.30
2022-08-09T13:41:55.512Z,84.50
2022-08-09T13:46:42.379Z,84.30
2022-08-09T13:51:17.068Z,82.70
2022-08-09T13:56:39.848Z,84.80
2022-08-09T14:02:09.306Z,82.90
2022-08-09T14:07:41.033Z,85.20
2022-08-09T14:13:04.659Z,86.70
2022-08-09T14:18:34.165Z,85.60
2022-08-09T14:23:57.728Z,83.80
2022-08-09T14:30:35.399Z,82.70
2022-08-09T14:35:10.568Z,82.90
2022-08-09T14:41:01.359Z,83.30
2022-08-09T14:46:55.487Z,83.30
2022-08-09T14:52:01.804Z,86.40
2022-08-09T14:57:31.827Z,87.60
2022-08-09T15:03:10.543Z,86.90
2022-08-09T15:08:33.064Z,87.30
2022-08-09T15:13:57.347Z,88.10
2022-08-09T15:19:26.756Z,88.30
2022-08-09T15:24:58.254Z,88.40
2022-08-09T15:30:56.162Z,87.70
2022-08-09T15:36:02.504Z,88.70
2022-08-09T15:41:31.660Z,88.00
2022-08-09T15:46:55.053Z,88.60
2022-08-09T15:52:18.856Z,89.60
2022-08-09T15:57:44.423Z,88.70
2022-08-09T16:03:26.700Z,86.70
2022-08-09T16:09:00.829Z,88.60
2022-08-09T16:14:24.280Z,85.40
2022-08-09T16:20:04.416Z,83.60
2022-08-09T16:25:36.840Z,84.50
2022-08-09T16:31:02.133Z,84.90
2022-08-09T16:36:29.490Z,86.90
2022-08-09T16:42:02.766Z,87.40
2022-08-09T16:48:38.943Z,87.80
2022-08-09T16:53:09.197Z,89.10
2022-08-09T16:58:35.867Z,89.50
2022-08-09T17:03:59.219Z,90.40
2022-08-09T17:09:45.608Z,90.20
2022-08-09T17:15:31.283Z,90.20
2022-08-09T17:20:52.518Z,91.10
2022-08-09T17:26:17.397Z,90.80
2022-08-09T17:31:40.411Z,91.10
2022-08-09T17:37:02.593Z,91.80
2022-08-09T17:42:40.918Z,91.70
2022-08-09T17:48:05.120Z,92.70
2022-08-09T17:53:27.600Z,93.70
2022-08-09T17:58:54.157Z,94.10
2022-08-09T18:04:20.278Z,97.00
2022-08-09T18:09:43.169Z,97.60
2022-08-09T18:15:06.886Z,97.30
2022-08-09T18:21:00.344Z,99.40
2022-08-09T18:26:16.282Z,99.90
2022-08-09T18:31:55.202Z,99.90
2022-08-09T18:37:47.396Z,99.90
2022-08-09T18:43:00.798Z,99.90
2022-08-09T18:48:22.992Z,99.60
2022-08-09T18:53:56.528Z,99.90
2022-08-09T18:59:25.508Z,99.90
2022-08-09T19:05:03.848Z,99.90
2022-08-09T19:10:37.353Z,99.90
2022-08-09T19:16:00.151Z,99.90
2022-08-09T19:21:51.714Z,99.90
2022-08-09T19:27:05.743Z,99.90
2022-08-09T19:32:29.655Z,99.90
2022-08-09T19:37:57.690Z,99.90
2022-08-09T19:44:01.104Z,99.90
2022-08-09T19:50:09.217Z,99.90
2022-08-09T19:54:46.061Z,99.90
2022-08-09T20:00:08.912Z,99.90
2022-08-09T20:05:46.737Z,99.90
2022-08-09T20:11:13.143Z,99.90
2022-08-09T20:16:54.047Z,99.90
2022-08-09T20:22:17.009Z,99.90
2022-08-09T20:27:43.060Z,99.90
2022-08-09T20:33:06.554Z,99.90
2022-08-09T20:38:45.274Z,99.90
2022-08-09T20:44:11.993Z,99.90
2022-08-09T20:49:34.162Z,99.90
2022-08-09T20:54:56.507Z,99.90
2022-08-09T21:00:31.120Z,99.90
2022-08-09T21:05:59.689Z,99.90
2022-08-09T21:18:11.277Z,99.90
2022-08-09T21:22:52.550Z,99.90
2022-08-09T21:28:16.816Z,99.90
2022-08-09T21:33:56.901Z,99.90
2022-08-09T21:39:22.105Z,99.90
2022-08-09T21:44:50.971Z,99.90
2022-08-09T21:50:17.415Z,99.90
2022-08-09T21:55:46.641Z,99.90
2022-08-09T22:01:11.981Z,99.90
2022-08-09T22:06:59.314Z,99.90
2022-08-09T22:12:34.573Z,99.90
2022-08-09T22:17:56.780Z,99.90
2022-08-09T22:23:20.953Z,99.90
2022-08-09T22:28:54.124Z,99.90
2022-08-09T22:34:16.758Z,99.90
2022-08-09T22:39:58.229Z,99.90
2022-08-09T22:48:10.456Z,99.90
2022-08-09T22:51:10.734Z,99.90
2022-08-09T22:56:41.486Z,99.90
2022-08-09T23:02:03.915Z,99.90
2022-08-09T23:08:22.827Z,99.90
2022-08-09T23:13:27.793Z,99.90
2022-08-09T23:18:49.978Z,99.90
2022-08-09T23:24:12.126Z,99.90
2022-08-09T23:29:34.279Z,99.90
2022-08-09T23:34:56.472Z,99.90
2022-08-09T23:40:18.740Z,99.90
2022-08-09T23:45:40.871Z,99.90
2022-08-09T23:51:03.109Z,99.90
2022-08-09T23:56:53.553Z,99.90
